• Join FlightAware (Why Join?)
  • Login
  • US Flag 
02:50PM EDT


 

Airport Tracker/Info


-or-


 

Live Flight TrackerFlight Track Log ✈ SWA1319 ✈ 18-Apr-2013 ✈ KPDX - KOAK

Flight Track Log - Related Links

Times and Time Zones

All times are in EDT time to prevent confusion due to time zone crossing. See the SWA1319 flight status page for this flight to view local times or setup timezone preferences in your user account.

Time Position Orientation Groundspeed Altitude Reporting Facility
EDT Latitude Longitude Course Direction KTS MPH feet Rate Location/Type
11:21PM 45.6111 -122.6494 293° West 190 219 1,900  Level Seattle Center
11:22PM 45.6369 -122.7253 296° West 220 253 4,700 3,060 Climbing Seattle Center
11:22PM 45.6561 -122.7775 298° West 216 249 7,000 3,240 Climbing Seattle Center
11:23PM 45.6472 -122.7983 239° Southwest 210 242 8,000 1,860 Climbing Seattle Center
11:23PM 45.6036 -122.8197 199° South 234 269 8,900 1,920 Climbing Seattle Center
11:24PM 45.5731 -122.8283 191° South 296 341 10,000 2,520 Climbing Seattle Center
11:24PM 45.5253 -122.8469 195° South 265 305 11,500 2,160 Climbing Seattle Center
11:25PM 45.4992 -122.8583 197° South 313 360 12,000 2,220 Climbing Seattle Center
11:25PM 45.4383 -122.8831 196° South 312 359 13,800 2,220 Climbing Seattle Center
11:26PM 45.3481 -122.9206 196° South 330 380 15,900 2,040 Climbing Seattle Center
11:27PM 45.2497 -122.9594 196° South 353 406 18,000 2,160 Climbing Seattle Center
11:28PM 45.1456 -122.9681 183° South 370 426 20,300 1,860 Climbing Seattle Center
11:30PM 45.0358 -122.9625 178° South 389 448 21,800 1,680 Climbing Seattle Center
11:31PM 44.9200 -122.9581 178° South 408 470 23,700 1,620 Climbing Seattle Center
11:32PM 44.8033 -122.9542 179° South 413 475 25,100 1,380 Climbing Seattle Center
11:33PM 44.6817 -122.9500 179° South 428 493 26,600 1,380 Climbing Seattle Center
11:34PM 44.5569 -122.9442 178° South 444 511 28,000 1,260 Climbing Seattle Center
11:35PM 44.4300 -122.9400 179° South 452 520 29,200 1,260 Climbing Seattle Center
11:36PM 44.3025 -122.9356 179° South 461 531 30,600 1,320 Climbing Seattle Center
11:37PM 44.1703 -122.9319 179° South 465 535 31,900 1,080 Climbing Seattle Center
11:38PM 44.0369 -122.9286 179° South 472 543 32,900 900 Climbing Seattle Center
11:39PM 43.9022 -122.9239 179° South 477 549 33,800 840 Climbing Seattle Center
11:40PM 43.7678 -122.9211 179° South 481 554 34,700 540 Climbing Seattle Center
11:41PM 43.6331 -122.9158 178° South 483 556 35,000 120 Climbing Seattle Center
11:42PM 43.5003 -122.9117 179° South 478 550 35,000  Level Seattle Center
11:43PM 43.3658 -122.9086 179° South 482 555 35,000  Level Seattle Center
11:44PM 43.2317 -122.9036 178° South 481 554 35,000  Level Seattle Center
11:45PM 43.0703 -122.8986 179° South 484 557 35,000  Level Seattle Center
11:46PM 42.9353 -122.8933 178° South 486 559 35,000  Level Seattle Center
11:47PM 42.7994 -122.8906 179° South 487 560 35,000  Level Seattle Center
11:48PM 42.6761 -122.8864 179° South 481 554 35,000  Level Seattle Center
11:49PM 42.5422 -122.8833 179° South 483 556 35,000  Level Seattle Center
11:50PM 42.4094 -122.8800 179° South 480 552 35,000  Level Seattle Center
11:51PM 42.2778 -122.8758 179° South 480 552 35,000  Level Seattle Center
11:52PM 42.1450 -122.8719 179° South 480 552 35,000  Level Seattle Center
11:53PM 42.0119 -122.8689 179° South 480 552 35,000  Level Seattle Center
11:54PM 41.8808 -122.8664 179° South 476 548 35,000  Level Seattle Center
11:55PM 41.7228 -122.8619 179° South 476 548 35,000  Level Seattle Center
11:56PM 41.5897 -122.8594 179° South 480 552 35,000  Level Seattle Center
11:57PM 41.4578 -122.8558 179° South 478 550 35,000  Level Seattle Center
11:58PM 41.3178 -122.8525 179° South 479 551 35,000 -300 Level Seattle Center
11:59PM 41.1831 -122.8444 177° South 482 555 34,500 -540 Descending Seattle Center
12:00AM 41.0461 -122.8356 177° South 490 564 34,000 -300 Descending Seattle Center
12:01AM 40.9100 -122.8275 177° South 491 565 34,000  Level Seattle Center
12:02AM 40.7742 -122.8200 178° South 491 565 34,000 -240 Level Oakland Center
12:03AM 40.6392 -122.8111 177° South 487 560 33,600 -840 Descending Oakland Center
12:04AM 40.4742 -122.8025 178° South 495 570 32,300 -840 Descending Oakland Center
12:05AM 40.3361 -122.7939 177° South 499 574 32,000 -180 Descending Oakland Center
12:06AM 40.1997 -122.7864 178° South 497 572 32,000  Level Oakland Center
12:07AM 40.0650 -122.7789 178° South 492 566 32,000  Level Oakland Center
12:08AM 39.9292 -122.7700 177° South 493 567 32,000  Level Oakland Center
12:09AM 39.7928 -122.7619 177° South 494 568 32,000  Level Oakland Center
12:10AM 39.6575 -122.7556 178° South 492 566 32,000  Level Oakland Center
12:11AM 39.5206 -122.7483 178° South 496 571 32,000 -540 Level Oakland Center
12:12AM 39.3561 -122.7317 176° South 496 571 31,000 -1,260 Descending Oakland Center
12:13AM 39.2214 -122.7167 175° South 491 565 29,500 -1,920 Descending Oakland Center
12:14AM 39.1019 -122.7061 176° South 486 559 27,100 -2,640 Descending Oakland Center
12:15AM 38.9725 -122.6928 175° South 473 544 24,200 -3,060 Descending Oakland Center
12:16AM 38.8292 -122.6786 176° South 459 528 20,900 -3,060 Descending Oakland Center
12:17AM 38.7050 -122.6678 176° South 450 518 18,000 -2,700 Descending Oakland Center
12:18AM 38.5847 -122.6556 175° South 437 503 15,500 -2,520 Descending Oakland Center
12:19AM 38.4692 -122.6386 173° South 422 486 12,900 -2,280 Descending Oakland Center
12:20AM 38.3603 -122.6186 172° South 400 460 10,900 -1,380 Descending Oakland Center
12:21AM 38.2636 -122.6011 172° South 353 406 10,200 -840 Descending Oakland Center
12:22AM 38.1803 -122.5847 171° South 311 358 9,300 -1,260 Descending Oakland Center
12:23AM 38.1078 -122.5519 160° South 288 331 7,700 -1,560 Descending Oakland Center
12:24AM 38.0419 -122.4947 146° Southeast 284 327 6,200 -1,140 Descending Oakland Center
12:25AM 37.9811 -122.4317 141° Southeast 282 325 5,400 -600 Descending Oakland Center
12:26AM 37.9339 -122.3583 129° Southeast 271 312 5,000 -240 Descending Oakland Center
12:27AM 37.8858 -122.2814 128° Southeast 273 314 5,000  Level Oakland Center
12:28AM 37.8400 -122.2078 128° Southeast 271 312 5,000  Level Oakland Center
12:29AM 37.8017 -122.1497 130° Southeast 239 275 5,000 -180 Level Oakland Center
12:30AM 37.7569 -122.0797 129° Southeast 216 249 4,700 -600 Descending Oakland Center
12:31AM 37.7164 -122.0294 136° Southeast 225 259 3,800 -900 Descending Oakland Center
12:32AM 37.6639 -122.0275 178° South 197 227 2,900 -840 Descending Oakland Center
12:34AM 37.6292 -122.0689 223° Southwest 183 211 2,200 -540 Descending Oakland Center
12:35AM 37.6389 -122.1219 283° West 176 203 1,900 -600 Descending Oakland Center
12:36AM 37.6647 -122.1594 311° West 153 176 1,100 -780 Descending Oakland Center
12:37AM 37.6883 -122.1942 311° West 142 163 400 14,820 Descending Oakland Center
12:38AM 37.7106 -122.2281 310° West 132 152 31,000 30,060 Climbing Oakland Center